sensor_id;sensor_type;location;lat;lon;timestamp;pressure;altitude;pressure_sealevel;temperature
45034;BMP280;30771;47.988;-4.186;2023-07-22T06:02:01;98256.94;;;15.57
45034;BMP280;30771;47.988;-4.186;2023-07-22T06:04:26;98254.84;;;15.54
45034;BMP280;30771;47.988;-4.186;2023-07-22T06:06:51;98257.44;;;15.59
45034;BMP280;30771;47.988;-4.186;2023-07-22T06:09:16;98265.91;;;15.62
45034;BMP280;30771;47.988;-4.186;2023-07-22T06:11:42;98271.38;;;15.65
45034;BMP280;30771;47.988;-4.186;2023-07-22T06:14:07;98258.91;;;15.66
45034;BMP280;30771;47.988;-4.186;2023-07-22T06:16:32;98230.91;;;15.59
45034;BMP280;30771;47.988;-4.186;2023-07-22T06:18:57;98241.25;;;15.93
45034;BMP280;30771;47.988;-4.186;2023-07-22T06:21:23;98210.69;;;15.96
45034;BMP280;30771;47.988;-4.186;2023-07-22T06:23:48;98215.03;;;16.05
45034;BMP280;30771;47.988;-4.186;2023-07-22T06:26:13;98218.31;;;16.16
45034;BMP280;30771;47.988;-4.186;2023-07-22T06:28:38;98213.59;;;16.26
45034;BMP280;30771;47.988;-4.186;2023-07-22T06:31:04;98184.28;;;16.18
45034;BMP280;30771;47.988;-4.186;2023-07-22T06:33:29;98201.88;;;16.41
45034;BMP280;30771;47.988;-4.186;2023-07-22T06:35:54;98202.47;;;16.38
45034;BMP280;30771;47.988;-4.186;2023-07-22T06:38:19;98225.50;;;16.42
45034;BMP280;30771;47.988;-4.186;2023-07-22T06:40:45;98221.97;;;16.47
45034;BMP280;30771;47.988;-4.186;2023-07-22T06:43:10;98220.78;;;16.53
45034;BMP280;30771;47.988;-4.186;2023-07-22T06:45:35;98216.03;;;16.63
45034;BMP280;30771;47.988;-4.186;2023-07-22T06:48:00;98198.81;;;16.74
45034;BMP280;30771;47.988;-4.186;2023-07-22T06:50:26;98197.03;;;16.83
45034;BMP280;30771;47.988;-4.186;2023-07-22T06:52:51;98195.91;;;16.84
45034;BMP280;30771;47.988;-4.186;2023-07-22T06:55:16;98188.81;;;16.93
45034;BMP280;30771;47.988;-4.186;2023-07-22T06:57:42;98174.34;;;17.00
45034;BMP280;30771;47.988;-4.186;2023-07-22T07:00:08;98167.53;;;17.29
45034;BMP280;30771;47.988;-4.186;2023-07-22T07:02:33;98137.75;;;17.41
45034;BMP280;30771;47.988;-4.186;2023-07-22T07:04:58;98114.88;;;17.62
45034;BMP280;30771;47.988;-4.186;2023-07-22T07:07:24;98107.91;;;17.83
45034;BMP280;30771;47.988;-4.186;2023-07-22T07:09:49;98081.00;;;17.93
45034;BMP280;30771;47.988;-4.186;2023-07-22T07:12:14;98063.81;;;18.07
45034;BMP280;30771;47.988;-4.186;2023-07-22T07:14:40;98046.75;;;18.17
45034;BMP280;30771;47.988;-4.186;2023-07-22T07:17:05;98055.84;;;18.24
45034;BMP280;30771;47.988;-4.186;2023-07-22T07:19:31;98033.31;;;18.30
45034;BMP280;30771;47.988;-4.186;2023-07-22T07:21:56;98001.66;;;18.46
45034;BMP280;30771;47.988;-4.186;2023-07-22T07:24:21;97970.44;;;18.64
45034;BMP280;30771;47.988;-4.186;2023-07-22T07:26:47;97927.91;;;18.76
45034;BMP280;30771;47.988;-4.186;2023-07-22T07:29:12;97913.34;;;18.73
45034;BMP280;30771;47.988;-4.186;2023-07-22T07:31:38;97908.19;;;18.68
45034;BMP280;30771;47.988;-4.186;2023-07-22T07:34:03;97884.06;;;18.65
45034;BMP280;30771;47.988;-4.186;2023-07-22T07:36:29;97867.88;;;18.70
45034;BMP280;30771;47.988;-4.186;2023-07-22T07:38:55;97846.72;;;18.73
45034;BMP280;30771;47.988;-4.186;2023-07-22T07:41:21;97804.16;;;18.85
45034;BMP280;30771;47.988;-4.186;2023-07-22T07:43:46;97793.94;;;19.16
45034;BMP280;30771;47.988;-4.186;2023-07-22T07:46:16;97783.84;;;19.42
45034;BMP280;30771;47.988;-4.186;2023-07-22T07:48:41;97773.66;;;19.56
45034;BMP280;30771;47.988;-4.186;2023-07-22T07:51:07;97779.25;;;19.63
45034;BMP280;30771;47.988;-4.186;2023-07-22T07:53:32;97769.56;;;19.59
45034;BMP280;30771;47.988;-4.186;2023-07-22T07:55:57;97799.25;;;19.78
45034;BMP280;30771;47.988;-4.186;2023-07-22T07:58:22;97816.59;;;19.84
45034;BMP280;30771;47.988;-4.186;2023-07-22T08:00:48;97846.19;;;19.79
45034;BMP280;30771;47.988;-4.186;2023-07-22T08:03:13;97875.34;;;19.84
45034;BMP280;30771;47.988;-4.186;2023-07-22T08:05:39;97889.47;;;19.84
45034;BMP280;30771;47.988;-4.186;2023-07-22T08:08:04;97885.16;;;19.92
45034;BMP280;30771;47.988;-4.186;2023-07-22T08:10:34;97941.09;;;20.30
45034;BMP280;30771;47.988;-4.186;2023-07-22T08:12:59;97995.97;;;20.60
45034;BMP280;30771;47.988;-4.186;2023-07-22T08:15:25;98083.75;;;20.78
45034;BMP280;30771;47.988;-4.186;2023-07-22T08:17:50;98127.03;;;20.72
45034;BMP280;30771;47.988;-4.186;2023-07-22T08:20:15;98167.69;;;20.65
45034;BMP280;30771;47.988;-4.186;2023-07-22T08:22:40;98194.16;;;20.58
45034;BMP280;30771;47.988;-4.186;2023-07-22T08:25:06;98181.28;;;20.52
45034;BMP280;30771;47.988;-4.186;2023-07-22T08:27:31;98172.53;;;20.43
45034;BMP280;30771;47.988;-4.186;2023-07-22T08:29:56;98181.91;;;20.28
45034;BMP280;30771;47.988;-4.186;2023-07-22T08:32:22;98155.47;;;20.06
45034;BMP280;30771;47.988;-4.186;2023-07-22T08:34:47;98137.66;;;20.10
45034;BMP280;30771;47.988;-4.186;2023-07-22T08:37:12;98153.91;;;20.34
45034;BMP280;30771;47.988;-4.186;2023-07-22T08:39:37;98214.94;;;20.53
45034;BMP280;30771;47.988;-4.186;2023-07-22T08:42:04;98355.19;;;20.55
45034;BMP280;30771;47.988;-4.186;2023-07-22T08:44:32;98426.66;;;20.46
45034;BMP280;30771;47.988;-4.186;2023-07-22T08:46:59;98450.09;;;20.41
45034;BMP280;30771;47.988;-4.186;2023-07-22T08:49:26;98471.16;;;20.42
45034;BMP280;30771;47.988;-4.186;2023-07-22T08:51:53;98511.06;;;20.47
45034;BMP280;30771;47.988;-4.186;2023-07-22T08:54:19;98533.72;;;20.50
45034;BMP280;30771;47.988;-4.186;2023-07-22T08:56:45;98557.16;;;20.70
45034;BMP280;30771;47.988;-4.186;2023-07-22T08:59:11;98586.41;;;20.83
45034;BMP280;30771;47.988;-4.186;2023-07-22T09:01:37;98637.84;;;20.80
45034;BMP280;30771;47.988;-4.186;2023-07-22T09:04:03;98649.03;;;20.82
45034;BMP280;30771;47.988;-4.186;2023-07-22T09:06:28;98661.78;;;21.02
45034;BMP280;30771;47.988;-4.186;2023-07-22T09:08:55;98727.88;;;21.02
45034;BMP280;30771;47.988;-4.186;2023-07-22T09:11:23;98763.59;;;20.97
45034;BMP280;30771;47.988;-4.186;2023-07-22T09:13:49;98802.63;;;20.98
45034;BMP280;30771;47.988;-4.186;2023-07-22T09:16:17;98776.84;;;21.02
45034;BMP280;30771;47.988;-4.186;2023-07-22T09:18:43;98764.84;;;21.25
45034;BMP280;30771;47.988;-4.186;2023-07-22T09:21:08;98796.50;;;21.49
45034;BMP280;30771;47.988;-4.186;2023-07-22T09:23:37;98846.56;;;21.40
45034;BMP280;30771;47.988;-4.186;2023-07-22T09:26:13;98896.22;;;21.54
45034;BMP280;30771;47.988;-4.186;2023-07-22T09:31:17;98918.91;;;21.74
45034;BMP280;30771;47.988;-4.186;2023-07-22T09:33:42;98979.09;;;21.59
45034;BMP280;30771;47.988;-4.186;2023-07-22T09:36:09;99003.38;;;21.63
45034;BMP280;30771;47.988;-4.186;2023-07-22T09:38:36;99012.53;;;21.71
45034;BMP280;30771;47.988;-4.186;2023-07-22T09:41:01;98988.72;;;21.60
45034;BMP280;30771;47.988;-4.186;2023-07-22T09:43:27;98982.56;;;21.60
45034;BMP280;30771;47.988;-4.186;2023-07-22T09:45:52;99048.91;;;21.54
45034;BMP280;30771;47.988;-4.186;2023-07-22T09:48:17;99062.41;;;21.49
45034;BMP280;30771;47.988;-4.186;2023-07-22T09:50:42;99046.88;;;21.68
45034;BMP280;30771;47.988;-4.186;2023-07-22T09:53:08;99046.94;;;21.86
45034;BMP280;30771;47.988;-4.186;2023-07-22T09:55:33;99055.91;;;22.07
45034;BMP280;30771;47.988;-4.186;2023-07-22T09:58:02;99079.75;;;22.17
45034;BMP280;30771;47.988;-4.186;2023-07-22T10:00:33;99098.97;;;22.19
45034;BMP280;30771;47.988;-4.186;2023-07-22T10:03:01;99114.44;;;22.22
45034;BMP280;30771;47.988;-4.186;2023-07-22T10:05:27;99181.34;;;22.27
45034;BMP280;30771;47.988;-4.186;2023-07-22T10:07:55;99171.56;;;22.48
45034;BMP280;30771;47.988;-4.186;2023-07-22T10:10:23;99227.59;;;22.75
45034;BMP280;30771;47.988;-4.186;2023-07-22T10:12:50;99290.59;;;22.77
45034;BMP280;30771;47.988;-4.186;2023-07-22T10:15:16;99409.31;;;22.66
45034;BMP280;30771;47.988;-4.186;2023-07-22T10:17:43;99514.41;;;22.37
45034;BMP280;30771;47.988;-4.186;2023-07-22T10:20:09;99506.75;;;22.22
45034;BMP280;30771;47.988;-4.186;2023-07-22T10:22:36;99501.22;;;22.19
45034;BMP280;30771;47.988;-4.186;2023-07-22T10:25:04;99520.78;;;21.97
45034;BMP280;30771;47.988;-4.186;2023-07-22T10:27:30;99495.78;;;21.88
45034;BMP280;30771;47.988;-4.186;2023-07-22T10:29:56;99477.72;;;21.80
45034;BMP280;30771;47.988;-4.186;2023-07-22T10:32:21;99486.72;;;21.98
45034;BMP280;30771;47.988;-4.186;2023-07-22T10:34:46;99474.47;;;22.05
45034;BMP280;30771;47.988;-4.186;2023-07-22T10:37:12;99470.50;;;22.03
45034;BMP280;30771;47.988;-4.186;2023-07-22T10:39:37;99474.50;;;22.14
45034;BMP280;30771;47.988;-4.186;2023-07-22T10:42:03;99491.81;;;22.30
45034;BMP280;30771;47.988;-4.186;2023-07-22T10:44:31;99545.19;;;22.18
45034;BMP280;30771;47.988;-4.186;2023-07-22T10:46:57;99522.53;;;22.02
45034;BMP280;30771;47.988;-4.186;2023-07-22T10:49:22;99540.63;;;22.18
45034;BMP280;30771;47.988;-4.186;2023-07-22T10:51:49;99540.16;;;22.16
45034;BMP280;30771;47.988;-4.186;2023-07-22T10:54:15;99528.31;;;22.61
45034;BMP280;30771;47.988;-4.186;2023-07-22T10:56:56;99558.53;;;23.06
45034;BMP280;30771;47.988;-4.186;2023-07-22T10:59:26;99625.13;;;23.26
45034;BMP280;30771;47.988;-4.186;2023-07-22T11:01:53;99680.50;;;23.35
45034;BMP280;30771;47.988;-4.186;2023-07-22T11:04:23;99751.09;;;23.49
45034;BMP280;30771;47.988;-4.186;2023-07-22T11:11:53;99804.66;;;23.46
45034;BMP280;30771;47.988;-4.186;2023-07-22T11:14:22;99818.13;;;23.54
45034;BMP280;30771;47.988;-4.186;2023-07-22T11:16:48;99837.88;;;23.50
45034;BMP280;30771;47.988;-4.186;2023-07-22T11:19:14;99830.56;;;23.42
45034;BMP280;30771;47.988;-4.186;2023-07-22T11:21:41;99843.72;;;23.30
45034;BMP280;30771;47.988;-4.186;2023-07-22T11:24:07;99830.28;;;23.08
45034;BMP280;30771;47.988;-4.186;2023-07-22T11:26:33;99816.50;;;22.87
45034;BMP280;30771;47.988;-4.186;2023-07-22T11:29:07;99793.84;;;22.80
45034;BMP280;30771;47.988;-4.186;2023-07-22T11:31:37;99753.56;;;22.93
45034;BMP280;30771;47.988;-4.186;2023-07-22T11:34:03;99751.13;;;23.05
45034;BMP280;30771;47.988;-4.186;2023-07-22T11:36:29;99751.38;;;22.95
45034;BMP280;30771;47.988;-4.186;2023-07-22T11:39:01;99747.06;;;22.94
45034;BMP280;30771;47.988;-4.186;2023-07-22T11:41:27;99723.81;;;22.90
45034;BMP280;30771;47.988;-4.186;2023-07-22T11:43:52;99705.56;;;22.78
45034;BMP280;30771;47.988;-4.186;2023-07-22T11:46:18;99695.50;;;22.62
45034;BMP280;30771;47.988;-4.186;2023-07-22T11:48:50;99683.53;;;22.46
45034;BMP280;30771;47.988;-4.186;2023-07-22T11:51:20;99636.56;;;22.21
45034;BMP280;30771;47.988;-4.186;2023-07-22T11:53:50;99578.72;;;22.07
45034;BMP280;30771;47.988;-4.186;2023-07-22T11:56:24;99552.88;;;22.11
45034;BMP280;30771;47.988;-4.186;2023-07-22T11:58:55;99521.84;;;22.18
45034;BMP280;30771;47.988;-4.186;2023-07-22T12:01:31;99486.16;;;22.31
45034;BMP280;30771;47.988;-4.186;2023-07-22T12:03:57;99454.00;;;22.18
45034;BMP280;30771;47.988;-4.186;2023-07-22T12:06:25;99428.44;;;22.12
45034;BMP280;30771;47.988;-4.186;2023-07-22T12:08:52;99394.84;;;22.14
45034;BMP280;30771;47.988;-4.186;2023-07-22T12:11:24;99356.66;;;22.09
45034;BMP280;30771;47.988;-4.186;2023-07-22T12:14:11;99275.88;;;21.93
45034;BMP280;30771;47.988;-4.186;2023-07-22T12:16:37;99242.94;;;22.10
45034;BMP280;30771;47.988;-4.186;2023-07-22T12:19:03;99230.25;;;22.41
45034;BMP280;30771;47.988;-4.186;2023-07-22T12:21:29;99284.41;;;22.51
45034;BMP280;30771;47.988;-4.186;2023-07-22T12:23:54;99337.13;;;22.56
45034;BMP280;30771;47.988;-4.186;2023-07-22T12:26:20;99391.63;;;22.65
45034;BMP280;30771;47.988;-4.186;2023-07-22T12:28:45;99412.47;;;22.76
45034;BMP280;30771;47.988;-4.186;2023-07-22T12:31:11;99453.78;;;22.97
45034;BMP280;30771;47.988;-4.186;2023-07-22T12:33:36;99550.84;;;23.13
45034;BMP280;30771;47.988;-4.186;2023-07-22T12:36:01;99609.94;;;23.21
45034;BMP280;30771;47.988;-4.186;2023-07-22T12:38:27;99707.38;;;23.13
45034;BMP280;30771;47.988;-4.186;2023-07-22T12:40:52;99737.16;;;23.03
45034;BMP280;30771;47.988;-4.186;2023-07-22T12:43:17;99758.06;;;23.06
45034;BMP280;30771;47.988;-4.186;2023-07-22T12:45:42;99741.34;;;23.09
45034;BMP280;30771;47.988;-4.186;2023-07-22T12:48:09;99729.47;;;23.32
45034;BMP280;30771;47.988;-4.186;2023-07-22T12:50:34;99728.19;;;23.60
45034;BMP280;30771;47.988;-4.186;2023-07-22T12:52:59;99754.00;;;23.70
45034;BMP280;30771;47.988;-4.186;2023-07-22T12:55:25;99748.75;;;23.65
45034;BMP280;30771;47.988;-4.186;2023-07-22T12:57:50;99744.34;;;23.69
45034;BMP280;30771;47.988;-4.186;2023-07-22T13:00:16;99735.56;;;23.94
45034;BMP280;30771;47.988;-4.186;2023-07-22T13:02:41;99772.13;;;24.04
45034;BMP280;30771;47.988;-4.186;2023-07-22T13:05:07;99754.91;;;24.05
45034;BMP280;30771;47.988;-4.186;2023-07-22T13:07:32;99758.22;;;24.02
45034;BMP280;30771;47.988;-4.186;2023-07-22T13:09:58;99761.50;;;23.90
45034;BMP280;30771;47.988;-4.186;2023-07-22T13:12:23;99773.47;;;23.75
45034;BMP280;30771;47.988;-4.186;2023-07-22T13:14:49;99747.25;;;23.50
45034;BMP280;30771;47.988;-4.186;2023-07-22T13:17:14;99733.63;;;23.38
45034;BMP280;30771;47.988;-4.186;2023-07-22T13:19:39;99727.34;;;23.21
45034;BMP280;30771;47.988;-4.186;2023-07-22T13:22:05;99688.66;;;23.00
45034;BMP280;30771;47.988;-4.186;2023-07-22T13:24:30;99635.91;;;22.73
45034;BMP280;30771;47.988;-4.186;2023-07-22T13:26:55;99615.09;;;22.57
45034;BMP280;30771;47.988;-4.186;2023-07-22T13:29:20;99617.34;;;22.41
45034;BMP280;30771;47.988;-4.186;2023-07-22T13:31:46;99610.97;;;22.37
45034;BMP280;30771;47.988;-4.186;2023-07-22T13:34:11;99575.47;;;22.32
45034;BMP280;30771;47.988;-4.186;2023-07-22T13:36:36;99561.47;;;22.35
45034;BMP280;30771;47.988;-4.186;2023-07-22T13:39:02;99513.28;;;22.30
45034;BMP280;30771;47.988;-4.186;2023-07-22T13:41:27;99451.84;;;22.20
45034;BMP280;30771;47.988;-4.186;2023-07-22T13:43:52;99388.75;;;22.22
45034;BMP280;30771;47.988;-4.186;2023-07-22T13:46:17;99339.84;;;22.25
45034;BMP280;30771;47.988;-4.186;2023-07-22T13:48:43;99334.78;;;22.15
45034;BMP280;30771;47.988;-4.186;2023-07-22T13:51:08;99312.81;;;22.05
45034;BMP280;30771;47.988;-4.186;2023-07-22T13:53:33;99268.94;;;22.01
45034;BMP280;30771;47.988;-4.186;2023-07-22T13:55:59;99227.03;;;22.05
45034;BMP280;30771;47.988;-4.186;2023-07-22T13:58:24;99217.00;;;22.27
45034;BMP280;30771;47.988;-4.186;2023-07-22T14:00:49;99227.06;;;22.30
45034;BMP280;30771;47.988;-4.186;2023-07-22T14:03:15;99287.19;;;22.29
45034;BMP280;30771;47.988;-4.186;2023-07-22T14:05:40;99272.81;;;22.17
45034;BMP280;30771;47.988;-4.186;2023-07-22T14:08:05;99255.44;;;22.14
45034;BMP280;30771;47.988;-4.186;2023-07-22T14:10:30;99255.28;;;22.19
45034;BMP280;30771;47.988;-4.186;2023-07-22T14:12:56;99231.50;;;22.26
45034;BMP280;30771;47.988;-4.186;2023-07-22T14:15:21;99207.03;;;22.19
45034;BMP280;30771;47.988;-4.186;2023-07-22T14:17:46;99233.22;;;22.22
45034;BMP280;30771;47.988;-4.186;2023-07-22T14:20:12;99261.59;;;22.15
45034;BMP280;30771;47.988;-4.186;2023-07-22T14:22:37;99258.28;;;22.09
45034;BMP280;30771;47.988;-4.186;2023-07-22T14:25:03;99248.94;;;22.07
45034;BMP280;30771;47.988;-4.186;2023-07-22T14:27:28;99289.09;;;21.98
45034;BMP280;30771;47.988;-4.186;2023-07-22T14:29:53;99270.31;;;21.90
45034;BMP280;30771;47.988;-4.186;2023-07-22T14:32:19;99252.50;;;21.85
45034;BMP280;30771;47.988;-4.186;2023-07-22T14:34:44;99246.63;;;21.83
45034;BMP280;30771;47.988;-4.186;2023-07-22T14:37:09;99227.56;;;21.85
45034;BMP280;30771;47.988;-4.186;2023-07-22T14:39:34;99236.69;;;21.84
45034;BMP280;30771;47.988;-4.186;2023-07-22T14:42:00;99269.97;;;21.83
45034;BMP280;30771;47.988;-4.186;2023-07-22T14:44:25;99273.53;;;21.69
45034;BMP280;30771;47.988;-4.186;2023-07-22T14:46:50;99265.19;;;21.71
45034;BMP280;30771;47.988;-4.186;2023-07-22T14:49:16;99270.03;;;21.69
45034;BMP280;30771;47.988;-4.186;2023-07-22T14:51:41;99275.25;;;21.65
45034;BMP280;30771;47.988;-4.186;2023-07-22T14:54:06;99246.00;;;21.55
45034;BMP280;30771;47.988;-4.186;2023-07-22T14:56:32;99206.66;;;21.34
45034;BMP280;30771;47.988;-4.186;2023-07-22T14:58:57;99145.47;;;21.19
45034;BMP280;30771;47.988;-4.186;2023-07-22T15:01:22;99083.22;;;21.13
45034;BMP280;30771;47.988;-4.186;2023-07-22T15:03:47;99000.66;;;20.98
45034;BMP280;30771;47.988;-4.186;2023-07-22T15:06:13;98943.59;;;20.81
45034;BMP280;30771;47.988;-4.186;2023-07-22T15:08:38;98880.34;;;20.85
45034;BMP280;30771;47.988;-4.186;2023-07-22T15:11:03;98835.81;;;20.89
45034;BMP280;30771;47.988;-4.186;2023-07-22T15:13:28;98784.84;;;20.85
45034;BMP280;30771;47.988;-4.186;2023-07-22T15:15:54;98808.44;;;21.00
45034;BMP280;30771;47.988;-4.186;2023-07-22T15:18:19;98781.41;;;21.02
45034;BMP280;30771;47.988;-4.186;2023-07-22T15:20:44;98758.41;;;21.09
45034;BMP280;30771;47.988;-4.186;2023-07-22T15:23:10;98761.88;;;21.18
45034;BMP280;30771;47.988;-4.186;2023-07-22T15:25:35;98773.81;;;21.21
45034;BMP280;30771;47.988;-4.186;2023-07-22T15:28:00;98812.59;;;21.15
45034;BMP280;30771;47.988;-4.186;2023-07-22T15:30:26;98875.84;;;21.02
45034;BMP280;30771;47.988;-4.186;2023-07-22T15:32:51;98902.44;;;20.99
45034;BMP280;30771;47.988;-4.186;2023-07-22T15:35:16;98914.06;;;20.94
45034;BMP280;30771;47.988;-4.186;2023-07-22T15:37:42;98937.81;;;20.96
45034;BMP280;30771;47.988;-4.186;2023-07-22T15:40:07;98933.88;;;20.93
45034;BMP280;30771;47.988;-4.186;2023-07-22T15:42:32;98900.97;;;20.84
45034;BMP280;30771;47.988;-4.186;2023-07-22T15:44:58;98878.63;;;20.89
45034;BMP280;30771;47.988;-4.186;2023-07-22T15:47:23;98865.84;;;20.77
45034;BMP280;30771;47.988;-4.186;2023-07-22T15:49:48;98883.19;;;20.88
45034;BMP280;30771;47.988;-4.186;2023-07-22T15:52:13;98876.28;;;20.96
45034;BMP280;30771;47.988;-4.186;2023-07-22T15:54:39;98852.34;;;20.91
45034;BMP280;30771;47.988;-4.186;2023-07-22T15:57:04;98839.16;;;20.94
45034;BMP280;30771;47.988;-4.186;2023-07-22T15:59:30;98831.13;;;20.94
45034;BMP280;30771;47.988;-4.186;2023-07-22T16:01:55;98809.38;;;20.96
45034;BMP280;30771;47.988;-4.186;2023-07-22T16:04:20;98790.06;;;20.90
45034;BMP280;30771;47.988;-4.186;2023-07-22T16:06:45;98755.56;;;20.80
45034;BMP280;30771;47.988;-4.186;2023-07-22T16:09:11;98724.53;;;20.79
45034;BMP280;30771;47.988;-4.186;2023-07-22T16:11:36;98729.63;;;20.98
45034;BMP280;30771;47.988;-4.186;2023-07-22T16:14:01;98686.00;;;20.97
45034;BMP280;30771;47.988;-4.186;2023-07-22T16:16:26;98666.47;;;20.97
45034;BMP280;30771;47.988;-4.186;2023-07-22T16:18:52;98638.31;;;20.91
45034;BMP280;30771;47.988;-4.186;2023-07-22T16:21:17;98594.91;;;20.85
45034;BMP280;30771;47.988;-4.186;2023-07-22T16:23:42;98574.25;;;20.86
45034;BMP280;30771;47.988;-4.186;2023-07-22T16:26:08;98522.53;;;20.73
45034;BMP280;30771;47.988;-4.186;2023-07-22T16:28:33;98463.06;;;20.68
45034;BMP280;30771;47.988;-4.186;2023-07-22T16:30:58;98412.75;;;20.61
45034;BMP280;30771;47.988;-4.186;2023-07-22T16:33:23;98381.34;;;20.58
45034;BMP280;30771;47.988;-4.186;2023-07-22T16:35:49;98339.81;;;20.52
45034;BMP280;30771;47.988;-4.186;2023-07-22T16:38:14;98300.41;;;20.41
45034;BMP280;30771;47.988;-4.186;2023-07-22T16:40:39;98262.81;;;20.37
45034;BMP280;30771;47.988;-4.186;2023-07-22T16:43:04;98218.53;;;20.28
45034;BMP280;30771;47.988;-4.186;2023-07-22T16:45:30;98171.09;;;20.25
45034;BMP280;30771;47.988;-4.186;2023-07-22T16:47:55;98156.00;;;20.29
45034;BMP280;30771;47.988;-4.186;2023-07-22T16:50:20;98113.16;;;20.17
45034;BMP280;30771;47.988;-4.186;2023-07-22T16:52:45;98076.91;;;20.07
45034;BMP280;30771;47.988;-4.186;2023-07-22T16:55:11;98028.31;;;20.05
45034;BMP280;30771;47.988;-4.186;2023-07-22T16:57:37;97975.97;;;19.92
45034;BMP280;30771;47.988;-4.186;2023-07-22T17:00:03;97934.50;;;19.95
45034;BMP280;30771;47.988;-4.186;2023-07-22T17:02:28;97888.34;;;19.85
45034;BMP280;30771;47.988;-4.186;2023-07-22T17:04:53;97848.06;;;19.78
45034;BMP280;30771;47.988;-4.186;2023-07-22T17:07:18;97845.44;;;19.90
45034;BMP280;30771;47.988;-4.186;2023-07-22T17:09:44;97811.25;;;19.84
45034;BMP280;30771;47.988;-4.186;2023-07-22T17:12:09;97806.06;;;19.88
45034;BMP280;30771;47.988;-4.186;2023-07-22T17:14:34;97795.69;;;19.86
45034;BMP280;30771;47.988;-4.186;2023-07-22T17:17:00;97766.22;;;19.82
45034;BMP280;30771;47.988;-4.186;2023-07-22T17:19:25;97716.63;;;19.61
45034;BMP280;30771;47.988;-4.186;2023-07-22T17:21:51;97713.00;;;19.65
45034;BMP280;30771;47.988;-4.186;2023-07-22T17:24:16;97685.72;;;19.60
45034;BMP280;30771;47.988;-4.186;2023-07-22T17:26:41;97667.63;;;19.53
45034;BMP280;30771;47.988;-4.186;2023-07-22T17:29:06;97648.34;;;19.48
45034;BMP280;30771;47.988;-4.186;2023-07-22T17:31:32;97621.66;;;19.48
45034;BMP280;30771;47.988;-4.186;2023-07-22T17:33:57;97613.66;;;19.48
45034;BMP280;30771;47.988;-4.186;2023-07-22T17:36:22;97609.31;;;19.43
45034;BMP280;30771;47.988;-4.186;2023-07-22T17:38:47;97572.97;;;19.39
45034;BMP280;30771;47.988;-4.186;2023-07-22T17:41:13;97565.03;;;19.30
45034;BMP280;30771;47.988;-4.186;2023-07-22T17:43:38;97540.91;;;19.27
45034;BMP280;30771;47.988;-4.186;2023-07-22T17:46:04;97528.56;;;19.22
45034;BMP280;30771;47.988;-4.186;2023-07-22T17:48:29;97498.97;;;19.15
45034;BMP280;30771;47.988;-4.186;2023-07-22T17:50:55;97501.56;;;19.12
45034;BMP280;30771;47.988;-4.186;2023-07-22T17:53:20;97486.53;;;19.07
45034;BMP280;30771;47.988;-4.186;2023-07-22T17:55:48;97480.69;;;19.14
45034;BMP280;30771;47.988;-4.186;2023-07-22T17:58:13;97467.97;;;19.11
45034;BMP280;30771;47.988;-4.186;2023-07-22T18:00:38;97469.22;;;19.13
45034;BMP280;30771;47.988;-4.186;2023-07-22T18:03:09;97462.66;;;19.11
45034;BMP280;30771;47.988;-4.186;2023-07-22T18:05:34;97435.19;;;18.98
45034;BMP280;30771;47.988;-4.186;2023-07-22T18:07:59;97429.78;;;18.95
45034;BMP280;30771;47.988;-4.186;2023-07-22T18:10:25;97438.44;;;18.92
45034;BMP280;30771;47.988;-4.186;2023-07-22T18:12:50;97437.41;;;18.84
45034;BMP280;30771;47.988;-4.186;2023-07-22T18:15:15;97461.72;;;18.83
45034;BMP280;30771;47.988;-4.186;2023-07-22T18:17:41;97481.91;;;18.72
45034;BMP280;30771;47.988;-4.186;2023-07-22T18:20:06;97514.88;;;18.67
45034;BMP280;30771;47.988;-4.186;2023-07-22T18:22:32;97534.59;;;18.66
45034;BMP280;30771;47.988;-4.186;2023-07-22T18:24:57;97543.59;;;18.62
45034;BMP280;30771;47.988;-4.186;2023-07-22T18:27:22;97568.03;;;18.64
45034;BMP280;30771;47.988;-4.186;2023-07-22T18:29:48;97589.03;;;18.65
45034;BMP280;30771;47.988;-4.186;2023-07-22T18:32:13;97593.88;;;18.63
45034;BMP280;30771;47.988;-4.186;2023-07-22T18:34:38;97616.31;;;18.62
45034;BMP280;30771;47.988;-4.186;2023-07-22T18:37:04;97623.88;;;18.60
45034;BMP280;30771;47.988;-4.186;2023-07-22T18:39:29;97649.38;;;18.61
45034;BMP280;30771;47.988;-4.186;2023-07-22T18:41:54;97644.47;;;18.51
45034;BMP280;30771;47.988;-4.186;2023-07-22T18:44:20;97671.38;;;18.58
45034;BMP280;30771;47.988;-4.186;2023-07-22T18:46:47;97687.03;;;18.60
45034;BMP280;30771;47.988;-4.186;2023-07-22T18:49:12;97704.28;;;18.54
45034;BMP280;30771;47.988;-4.186;2023-07-22T18:51:37;97727.19;;;18.55
45034;BMP280;30771;47.988;-4.186;2023-07-22T18:54:02;97741.50;;;18.50
45034;BMP280;30771;47.988;-4.186;2023-07-22T18:56:28;97758.63;;;18.41
45034;BMP280;30771;47.988;-4.186;2023-07-22T18:58:53;97793.09;;;18.37
45034;BMP280;30771;47.988;-4.186;2023-07-22T19:01:19;97820.22;;;18.30
45034;BMP280;30771;47.988;-4.186;2023-07-22T19:03:44;97867.22;;;18.35
45034;BMP280;30771;47.988;-4.186;2023-07-22T19:06:09;97882.56;;;18.29
45034;BMP280;30771;47.988;-4.186;2023-07-22T19:08:34;97895.13;;;18.20
45034;BMP280;30771;47.988;-4.186;2023-07-22T19:11:00;97901.06;;;18.17
45034;BMP280;30771;47.988;-4.186;2023-07-22T19:13:25;97912.19;;;18.11
45034;BMP280;30771;47.988;-4.186;2023-07-22T19:15:52;97949.31;;;18.24
45034;BMP280;30771;47.988;-4.186;2023-07-22T19:18:18;97956.84;;;18.22
45034;BMP280;30771;47.988;-4.186;2023-07-22T19:20:44;97966.09;;;18.16
45034;BMP280;30771;47.988;-4.186;2023-07-22T19:23:09;97977.03;;;18.15
45034;BMP280;30771;47.988;-4.186;2023-07-22T19:25:36;97975.31;;;18.10
45034;BMP280;30771;47.988;-4.186;2023-07-22T19:28:01;98001.94;;;18.10
45034;BMP280;30771;47.988;-4.186;2023-07-22T19:30:27;98007.63;;;18.09
45034;BMP280;30771;47.988;-4.186;2023-07-22T19:32:52;98011.94;;;18.05
45034;BMP280;30771;47.988;-4.186;2023-07-22T19:35:17;98017.00;;;18.06
45034;BMP280;30771;47.988;-4.186;2023-07-22T19:37:43;98024.19;;;18.06
45034;BMP280;30771;47.988;-4.186;2023-07-22T19:40:08;98025.91;;;18.02
45034;BMP280;30771;47.988;-4.186;2023-07-22T19:42:33;98021.06;;;18.04
45034;BMP280;30771;47.988;-4.186;2023-07-22T19:44:59;98016.81;;;18.03
45034;BMP280;30771;47.988;-4.186;2023-07-22T19:47:24;98012.59;;;18.02
45034;BMP280;30771;47.988;-4.186;2023-07-22T19:49:49;98004.91;;;18.00
45034;BMP280;30771;47.988;-4.186;2023-07-22T19:52:15;98001.13;;;17.93
45034;BMP280;30771;47.988;-4.186;2023-07-22T19:54:40;97986.09;;;17.88
45034;BMP280;30771;47.988;-4.186;2023-07-22T19:57:05;98002.25;;;17.92